Lakewood Club, Michigan
Current Conditions -  °F | °C
As of 5:33 AM on Wednesday 22 Oct 2014 (Local Time) from KFFX Reporting Station
Clear Clear  
Wind Chill: 27°   Ceiling: Unl
Heat Index: 32°   Visibility: 10mi
Dew Point: 30°   Wind: 5mph
Humidity: 92%   Direction: 70°ENE
Pressure: 30.32"   Gusts: NA
Location:  43.3636°N, 86.1512°W
Report Text: KFFX 220933Z AUTO 07004KT 10SM CLR 00/M01 A3032 RMK AO2 T00001012
Loading
Personal Weather Stations






























Interactive Weather Map
Tropical Storm Tracking
New forecast layout! Learn more

10-Day Weather Forecast

Advertisements
Track Severe Weather on mobile